Time;durP1;ratioP1;P1;durP2;ratioP2;P2;SDS_P1;SDS_P2;PMS_P1;PMS_P2;Temp;Humidity;BMP_temperature;BMP_pressure;BME280_temperature;BME280_humidity;BME280_pressure;Samples;Min_cycle;Max_cycle;Signal;HPM_P1;HPM_P2
2021/05/21 00:00:47;;;;;;;;;;;16.80;75.70;;;;;;4190006;28;20063;-51
2021/05/21 00:03:09;;;;;;;0.32;0.08;;;16.80;75.80;;;;;;4192640;28;19920;-51
2021/05/21 00:05:30;;;;;;;0.00;0.00;;;16.80;75.80;;;;;;4200828;28;20481;-46
2021/05/21 00:07:52;;;;;;;0.00;0.00;;;16.80;75.80;;;;;;4192827;28;20060;-51
2021/05/21 00:10:13;;;;;;;;;;;16.80;75.80;;;;;;4193214;28;20045;-53
2021/05/21 00:12:35;;;;;;;0.00;0.00;;;16.80;75.80;;;;;;4192398;28;19932;-50
2021/05/21 00:14:57;;;;;;;0.00;0.00;;;16.70;75.70;;;;;;4197544;28;20056;-51
2021/05/21 00:17:19;;;;;;;;;;;16.80;75.80;;;;;;4180981;28;20071;-50
2021/05/21 00:19:40;;;;;;;0.00;0.00;;;16.80;75.80;;;;;;4175729;28;20375;-52
2021/05/21 00:22:02;;;;;;;0.28;0.28;;;16.70;75.80;;;;;;4190380;28;20145;-54
2021/05/21 00:24:23;;;;;;;0.00;0.00;;;16.70;75.90;;;;;;4191798;28;20526;-54
2021/05/21 00:26:47;;;;;;;0.00;0.00;;;16.70;75.90;;;;;;4178218;28;20040;-50
2021/05/21 00:29:09;;;;;;;0.00;0.00;;;16.70;76.00;;;;;;4174998;28;20091;-56
2021/05/21 00:31:30;;;;;;;;;;;16.70;76.00;;;;;;4192955;28;20057;-53
2021/05/21 00:33:52;;;;;;;0.22;0.20;;;16.70;76.00;;;;;;4192206;28;20438;-52
2021/05/21 00:36:14;;;;;;;0.00;0.00;;;16.70;76.10;;;;;;4207084;28;20135;-49
2021/05/21 00:38:36;;;;;;;0.00;0.00;;;16.70;76.00;;;;;;4208597;28;20173;-50
2021/05/21 00:40:59;;;;;;;0.00;0.00;;;16.70;76.00;;;;;;4203039;28;20056;-52
2021/05/21 00:43:21;;;;;;;0.10;0.10;;;16.70;76.00;;;;;;4190257;28;20055;-52
2021/05/21 00:45:42;;;;;;;0.00;0.00;;;16.70;76.00;;;;;;4207721;28;20524;-50
2021/05/21 00:48:05;;;;;;;0.00;0.00;;;16.70;76.10;;;;;;4208175;28;20131;-51
2021/05/21 00:50:27;;;;;;;0.00;0.00;;;16.70;76.00;;;;;;4191705;28;20567;-47
2021/05/21 00:52:49;;;;;;;0.10;0.10;;;16.70;76.10;;;;;;4191784;28;20581;-50
2021/05/21 00:55:12;;;;;;;0.00;0.00;;;16.70;76.20;;;;;;4202606;28;20496;-50
2021/05/21 00:57:34;;;;;;;0.00;0.00;;;16.60;76.10;;;;;;4208575;28;20135;-49
2021/05/21 00:59:56;;;;;;;0.00;0.00;;;16.70;76.20;;;;;;4194111;28;20698;-50
2021/05/21 01:02:20;;;;;;;0.00;0.00;;;16.70;76.30;;;;;;4191659;28;20501;-50
2021/05/21 01:04:41;;;;;;;0.00;0.00;;;16.70;76.20;;;;;;4192173;28;20041;-48
2021/05/21 01:07:04;;;;;;;0.00;0.00;;;16.70;76.30;;;;;;4206053;28;20148;-53
2021/05/21 01:09:26;;;;;;;0.00;0.00;;;16.60;76.20;;;;;;4208352;28;20079;-50
2021/05/21 01:11:50;;;;;;;0.00;0.00;;;16.70;76.30;;;;;;4208162;28;20129;-49
2021/05/21 01:14:11;;;;;;;0.00;0.00;;;16.70;76.30;;;;;;4202847;28;20052;-50
2021/05/21 01:16:33;;;;;;;0.00;0.00;;;16.70;76.30;;;;;;4202848;28;20052;-49
2021/05/21 01:18:55;;;;;;;0.10;0.10;;;16.70;76.40;;;;;;4208421;28;20056;-50
2021/05/21 01:21:17;;;;;;;0.10;0.10;;;16.70;76.40;;;;;;4207778;28;20052;-47
2021/05/21 01:23:39;;;;;;;0.00;0.00;;;16.70;76.50;;;;;;4204514;28;20052;-52
2021/05/21 01:26:01;;;;;;;0.10;0.10;;;16.60;76.40;;;;;;4198048;28;20044;-50
2021/05/21 01:28:23;;;;;;;0.10;0.10;;;16.70;76.50;;;;;;4208122;28;20048;-50
2021/05/21 01:30:44;;;;;;;0.00;0.00;;;16.70;76.50;;;;;;4208068;28;20711;-53
2021/05/21 01:33:07;;;;;;;0.00;0.00;;;16.60;76.50;;;;;;4207983;28;20044;-52
2021/05/21 01:35:29;;;;;;;0.47;0.30;;;16.70;76.60;;;;;;4191625;28;20576;-51
2021/05/21 01:37:52;;;;;;;0.10;0.10;;;16.60;76.60;;;;;;4203633;28;20078;-52
2021/05/21 01:40:14;;;;;;;0.00;0.00;;;16.60;76.60;;;;;;4207522;28;20093;-53
2021/05/21 01:42:36;;;;;;;0.00;0.00;;;16.60;76.70;;;;;;4208046;28;20051;-53
2021/05/21 01:44:58;;;;;;;0.00;0.00;;;16.60;76.80;;;;;;4206490;28;20740;-51
2021/05/21 01:47:19;;;;;;;0.10;0.10;;;16.60;76.80;;;;;;4207672;28;20048;-50
2021/05/21 01:49:42;;;;;;;0.10;0.10;;;16.60;76.90;;;;;;4207804;28;20426;-48
2021/05/21 01:52:04;;;;;;;0.10;0.10;;;16.60;76.90;;;;;;4206447;28;20144;-48
2021/05/21 01:54:27;;;;;;;0.00;0.00;;;16.60;76.90;;;;;;4207296;28;20040;-51
2021/05/21 01:56:52;;;;;;;0.00;0.00;;;16.60;77.00;;;;;;4207999;28;20058;-49
2021/05/21 01:59:14;;;;;;;0.00;0.00;;;16.60;77.10;;;;;;4206783;28;20083;-49
2021/05/21 02:01:35;;;;;;;0.00;0.00;;;16.60;77.10;;;;;;4203355;28;20047;-52
2021/05/21 02:03:58;;;;;;;0.00;0.00;;;16.60;78.00;;;;;;4207776;28;20040;-51
2021/05/21 02:06:20;;;;;;;0.00;0.00;;;16.60;77.20;;;;;;4194523;28;20521;-49
2021/05/21 02:08:41;;;;;;;;;;;16.60;77.20;;;;;;4191699;28;20040;-50
2021/05/21 02:11:03;;;;;;;0.00;0.00;;;16.60;77.30;;;;;;4197880;28;20390;-50
2021/05/21 02:13:25;;;;;;;0.00;0.00;;;16.60;78.30;;;;;;4190742;28;20056;-53
2021/05/21 02:15:47;;;;;;;0.00;0.00;;;16.60;77.40;;;;;;4190812;28;20047;-52
2021/05/21 02:18:09;;;;;;;0.00;0.00;;;16.60;77.50;;;;;;4191060;28;20171;-51
2021/05/21 02:20:30;;;;;;;0.30;0.30;;;16.60;77.50;;;;;;4196734;28;20090;-51
2021/05/21 02:22:51;;;;;;;;;;;16.60;77.70;;;;;;4207532;28;20144;-48
2021/05/21 02:25:15;;;;;;;0.03;0.03;;;16.60;77.80;;;;;;4207699;28;19947;-48
2021/05/21 02:27:39;;;;;;;0.00;0.00;;;16.60;77.80;;;;;;4207812;28;20059;-51
2021/05/21 02:30:00;;;;;;;0.30;0.30;;;16.60;77.80;;;;;;4206008;28;20515;-53
2021/05/21 02:32:22;;;;;;;0.17;0.17;;;16.60;78.00;;;;;;4207498;28;20101;-49
2021/05/21 02:34:45;;;;;;;0.10;0.10;;;16.50;77.90;;;;;;4207134;28;20044;-50
2021/05/21 02:37:06;;;;;;;0.00;0.00;;;16.60;78.10;;;;;;4207234;28;20063;-52
2021/05/21 02:39:28;;;;;;;0.00;0.00;;;16.50;78.10;;;;;;4202695;28;20048;-47
2021/05/21 02:41:50;;;;;;;0.00;0.00;;;16.60;78.20;;;;;;4190096;28;20044;-52
2021/05/21 02:44:12;;;;;;;0.00;0.00;;;16.60;78.30;;;;;;4190751;28;20411;-48
2021/05/21 02:46:33;;;;;;;0.00;0.00;;;16.60;78.50;;;;;;4190579;28;20044;-47
2021/05/21 02:48:55;;;;;;;0.00;0.00;;;16.60;78.50;;;;;;4192700;28;20048;-49
2021/05/21 02:51:17;;;;;;;0.00;0.00;;;16.60;78.60;;;;;;4190281;28;20044;-51
2021/05/21 02:53:39;;;;;;;;;;;16.50;78.70;;;;;;4194044;28;20139;-49
2021/05/21 02:56:00;;;;;;;0.00;0.00;;;16.50;78.70;;;;;;4193742;28;19924;-49
2021/05/21 02:58:22;;;;;;;0.00;0.00;;;16.50;78.70;;;;;;4193453;28;20040;-50
2021/05/21 03:00:44;;;;;;;0.00;0.00;;;16.50;78.70;;;;;;4203402;28;20134;-48
2021/05/21 03:03:06;;;;;;;0.00;0.00;;;16.50;78.90;;;;;;4209993;28;20169;-47
2021/05/21 03:05:27;;;;;;;0.00;0.00;;;16.50;78.90;;;;;;4209886;28;20151;-48
2021/05/21 03:07:50;;;;;;;;;;;16.50;79.00;;;;;;4210533;28;20058;-51
2021/05/21 03:10:13;;;;;;;0.00;0.00;;;16.50;79.10;;;;;;4203381;28;20010;-50
2021/05/21 03:12:34;;;;;;;0.00;0.00;;;16.50;79.00;;;;;;4193287;28;20056;-47
2021/05/21 03:14:56;;;;;;;0.40;0.40;;;16.50;79.10;;;;;;4193220;28;20491;-49
2021/05/21 03:17:18;;;;;;;0.30;0.30;;;16.50;79.10;;;;;;4193145;28;20059;-51
2021/05/21 03:19:40;;;;;;;0.10;0.10;;;16.50;79.10;;;;;;4196251;28;20459;-52
2021/05/21 03:22:01;;;;;;;0.00;0.00;;;16.40;79.10;;;;;;4193131;28;20048;-47
2021/05/21 03:24:23;;;;;;;0.00;0.00;;;16.40;79.20;;;;;;4192936;28;20121;-50
2021/05/21 03:26:44;;;;;;;0.00;0.00;;;16.40;79.30;;;;;;4193015;28;20102;-50
2021/05/21 03:29:06;;;;;;;0.00;0.00;;;16.40;79.20;;;;;;4195621;28;20832;-51
2021/05/21 03:31:28;;;;;;;0.00;0.00;;;16.40;79.30;;;;;;4191292;28;20075;-49
2021/05/21 03:33:51;;;;;;;0.00;0.00;;;16.40;79.30;;;;;;4193898;28;20048;-51
2021/05/21 03:36:13;;;;;;;0.15;0.15;;;16.40;79.30;;;;;;4208672;28;20134;-49
2021/05/21 03:38:35;;;;;;;0.00;0.00;;;16.40;79.30;;;;;;4209544;28;20047;-50
2021/05/21 03:40:57;;;;;;;0.00;0.00;;;16.40;80.30;;;;;;4193483;28;20138;-50
2021/05/21 03:43:18;;;;;;;0.68;0.68;;;16.40;79.40;;;;;;4192943;28;20066;-50
2021/05/21 03:45:40;;;;;;;0.47;0.47;;;16.40;79.30;;;;;;4192683;28;20495;-50
2021/05/21 03:48:02;;;;;;;0.00;0.00;;;16.40;79.40;;;;;;4197766;28;20055;-50
2021/05/21 03:50:24;;;;;;;0.00;0.00;;;16.40;79.40;;;;;;4192391;28;20050;-48
2021/05/21 03:52:46;;;;;;;23.30;0.80;;;16.40;79.40;;;;;;4192692;28;20129;-50
2021/05/21 03:55:10;;;;;;;0.00;0.00;;;16.30;79.40;;;;;;4192498;28;20044;-50
2021/05/21 03:57:32;;;;;;;0.00;0.00;;;16.30;79.50;;;;;;4192976;28;20483;-53
2021/05/21 03:59:54;;;;;;;0.00;0.00;;;16.30;79.50;;;;;;4202510;28;20048;-51
2021/05/21 04:02:15;;;;;;;0.00;0.00;;;16.30;79.40;;;;;;4209281;28;20121;-48
2021/05/21 04:04:36;;;;;;;;;;;16.30;79.50;;;;;;4208007;28;20490;-48
2021/05/21 04:06:59;;;;;;;0.00;0.00;;;16.30;79.60;;;;;;4208986;28;19924;-48
2021/05/21 04:09:21;;;;;;;0.00;0.00;;;16.30;79.50;;;;;;4206935;28;20414;-47
2021/05/21 04:11:42;;;;;;;0.00;0.00;;;16.30;79.50;;;;;;4196892;28;20093;-48
2021/05/21 04:14:06;;;;;;;0.00;0.00;;;16.30;79.60;;;;;;4192363;28;20445;-48
2021/05/21 04:16:28;;;;;;;0.00;0.00;;;16.30;79.70;;;;;;4192048;28;20106;-50
2021/05/21 04:18:49;;;;;;;0.00;0.00;;;16.30;79.70;;;;;;4195481;28;20052;-48
2021/05/21 04:21:11;;;;;;;0.00;0.00;;;16.30;79.70;;;;;;4208867;28;20413;-50
2021/05/21 04:23:38;;;;;;;0.00;0.00;;;16.30;79.90;;;;;;4208994;28;20052;-50
2021/05/21 04:26:00;;;;;;;0.00;0.00;;;16.30;79.80;;;;;;4208918;28;20044;-53
2021/05/21 04:28:21;;;;;;;0.20;0.20;;;16.30;79.90;;;;;;4207964;28;20058;-49
2021/05/21 04:30:43;;;;;;;0.00;0.00;;;16.30;79.90;;;;;;4191919;28;20135;-50
2021/05/21 04:33:05;;;;;;;0.00;0.00;;;16.30;79.90;;;;;;4190826;28;20052;-47
2021/05/21 04:35:27;;;;;;;0.00;0.00;;;16.30;79.90;;;;;;4192032;28;20059;-47
2021/05/21 04:37:48;;;;;;;;;;;16.30;79.90;;;;;;4192717;28;20048;-52
2021/05/21 04:40:11;;;;;;;0.45;0.45;;;16.30;80.00;;;;;;4208031;28;19924;-52
2021/05/21 04:42:36;;;;;;;0.00;0.00;;;16.30;80.00;;;;;;4208525;28;20056;-48
2021/05/21 04:44:58;;;;;;;0.25;0.25;;;16.30;80.00;;;;;;4208679;28;20131;-51
2021/05/21 04:47:19;;;;;;;0.00;0.00;;;16.30;80.00;;;;;;4193197;28;20048;-52
2021/05/21 04:49:40;;;;;;;0.00;0.00;;;16.30;80.00;;;;;;4193027;28;20650;-51
2021/05/21 04:52:04;;;;;;;0.00;0.00;;;16.30;80.10;;;;;;4191704;28;20048;-49
2021/05/21 04:54:26;;;;;;;0.00;0.00;;;16.20;80.00;;;;;;4191536;28;20053;-55
2021/05/21 04:56:48;;;;;;;0.00;0.00;;;16.20;79.90;;;;;;4190121;28;20489;-51
2021/05/21 04:59:10;;;;;;;1.23;1.17;;;16.20;80.00;;;;;;4185210;28;20517;-52
2021/05/21 05:01:32;;;;;;;0.00;0.00;;;16.20;80.10;;;;;;4184566;28;20102;-48
2021/05/21 05:03:54;;;;;;;0.00;0.00;;;16.20;80.00;;;;;;4191244;28;20494;-48
2021/05/21 05:06:15;;;;;;;0.00;0.00;;;16.20;80.00;;;;;;4173317;28;20079;-45
2021/05/21 05:08:38;;;;;;;0.00;0.00;;;16.20;80.00;;;;;;4181826;28;20076;-54
2021/05/21 05:10:59;;;;;;;0.00;0.00;;;16.20;80.00;;;;;;4190224;28;20044;-46
2021/05/21 05:13:21;;;;;;;1.67;0.65;;;16.20;80.00;;;;;;4177339;28;20048;-53
2021/05/21 05:15:43;;;;;;;0.00;0.00;;;16.20;80.00;;;;;;4191128;28;20052;-47
2021/05/21 05:18:06;;;;;;;0.00;0.00;;;16.20;79.90;;;;;;4190526;28;20094;-50
2021/05/21 05:20:28;;;;;;;0.00;0.00;;;16.30;79.90;;;;;;4190753;28;20113;-50
2021/05/21 05:22:51;;;;;;;0.00;0.00;;;16.30;79.90;;;;;;4174691;28;20049;-53
2021/05/21 05:25:13;;;;;;;0.25;0.25;;;16.30;80.00;;;;;;4191233;28;20473;-51
2021/05/21 05:27:35;;;;;;;0.15;0.15;;;16.40;79.80;;;;;;4190896;28;20044;-52
2021/05/21 05:29:58;;;;;;;0.50;0.50;;;16.40;79.60;;;;;;4191949;28;20608;-54
2021/05/21 05:32:20;;;;;;;0.05;0.05;;;16.40;79.40;;;;;;4191661;28;20521;-50
2021/05/21 05:34:43;;;;;;;0.00;0.00;;;16.50;79.30;;;;;;4191104;28;20135;-47
2021/05/21 05:37:04;;;;;;;0.00;0.00;;;16.50;79.00;;;;;;4191246;28;20051;-49
2021/05/21 05:39:26;;;;;;;0.00;0.00;;;16.60;78.80;;;;;;4191119;28;20569;-52
2021/05/21 05:41:49;;;;;;;0.00;0.00;;;16.60;78.80;;;;;;4191795;28;20511;-49
2021/05/21 05:44:11;;;;;;;0.60;0.60;;;16.70;79.30;;;;;;4176129;28;20106;-50
2021/05/21 05:46:33;;;;;;;2.50;1.85;;;16.70;78.90;;;;;;4191215;28;20499;-51
2021/05/21 05:48:55;;;;;;;0.00;0.00;;;16.70;78.00;;;;;;4200398;28;20185;-50
2021/05/21 05:51:17;;;;;;;0.73;0.73;;;16.80;77.40;;;;;;4201225;28;20122;-51
2021/05/21 05:53:40;;;;;;;14.50;0.85;;;16.80;77.00;;;;;;4199480;28;20095;-50
2021/05/21 05:56:03;;;;;;;0.00;0.00;;;16.80;76.80;;;;;;4205288;28;20051;-49
2021/05/21 05:58:24;;;;;;;0.00;0.00;;;16.80;76.40;;;;;;4195068;28;20051;-54
2021/05/21 06:00:46;;;;;;;0.00;0.00;;;16.80;76.00;;;;;;4196813;28;20040;-45
2021/05/21 06:03:09;;;;;;;1.13;0.28;;;16.90;75.90;;;;;;4194733;28;20052;-50
2021/05/21 06:05:32;;;;;;;2.10;1.20;;;16.80;75.70;;;;;;4191190;28;20048;-48
2021/05/21 06:07:53;;;;;;;0.00;0.00;;;16.80;75.60;;;;;;4194610;28;20121;-46
2021/05/21 06:10:15;;;;;;;0.00;0.00;;;16.70;75.60;;;;;;4200686;28;20048;-49
2021/05/21 06:12:36;;;;;;;;;;;16.80;75.60;;;;;;4207978;28;20054;-48
2021/05/21 06:14:58;;;;;;;0.00;0.00;;;16.70;75.40;;;;;;4192136;28;19924;-47
2021/05/21 06:17:19;;;;;;;0.00;0.00;;;16.70;75.30;;;;;;4184094;28;20131;-51
2021/05/21 06:19:42;;;;;;;0.00;0.00;;;16.70;74.80;;;;;;4181950;28;20044;-49
2021/05/21 06:22:03;;;;;;;0.00;0.00;;;16.80;74.70;;;;;;4188088;28;20063;-52
2021/05/21 06:24:26;;;;;;;0.00;0.00;;;16.80;74.50;;;;;;4189989;28;20056;-46
2021/05/21 06:29:23;;;;;;;0.00;0.00;;;16.80;74.20;;;;;;4196763;28;20519;-48
2021/05/21 06:31:44;;;;;;;;;;;16.80;74.00;;;;;;4191531;28;20064;-47
2021/05/21 06:34:06;;;;;;;0.00;0.00;;;16.80;73.50;;;;;;4188158;28;19924;-51
2021/05/21 06:36:28;;;;;;;0.73;0.73;;;16.80;73.50;;;;;;4181413;28;20084;-50
2021/05/21 06:38:50;;;;;;;0.00;0.00;;;16.90;73.20;;;;;;4193778;28;20058;-49
2021/05/21 06:41:11;;;;;;;7.53;1.58;;;16.90;73.90;;;;;;4187063;28;20414;-50
2021/05/21 06:43:33;;;;;;;0.05;0.05;;;17.00;72.80;;;;;;4183735;28;20067;-48
2021/05/21 06:45:55;;;;;;;0.20;0.20;;;17.10;72.50;;;;;;4188819;28;20067;-51
2021/05/21 06:48:17;;;;;;;0.00;0.00;;;17.10;72.00;;;;;;4183720;28;20103;-47
2021/05/21 06:50:39;;;;;;;0.00;0.00;;;17.20;71.30;;;;;;4181189;28;20056;-50
2021/05/21 06:53:02;;;;;;;0.20;0.20;;;17.20;71.00;;;;;;4182654;28;20094;-51
2021/05/21 06:55:24;;;;;;;0.55;0.55;;;17.20;70.80;;;;;;4192587;28;20123;-50
2021/05/21 06:57:45;;;;;;;0.00;0.00;;;17.10;70.70;;;;;;4192725;28;20499;-49
2021/05/21 07:00:08;;;;;;;0.03;0.03;;;17.10;70.60;;;;;;4193450;28;20109;-46
2021/05/21 07:02:30;;;;;;;0.00;0.00;;;17.10;70.60;;;;;;4194158;28;20040;-56
2021/05/21 07:04:51;;;;;;;0.38;0.38;;;17.00;70.60;;;;;;4179438;28;20060;-54
2021/05/21 07:07:13;;;;;;;1.10;1.02;;;17.00;71.50;;;;;;4184773;28;20102;-50
2021/05/21 07:09:35;;;;;;;0.15;0.15;;;16.90;70.70;;;;;;4179990;28;20499;-51
2021/05/21 07:11:57;;;;;;;0.28;0.28;;;16.90;70.60;;;;;;4192710;28;20068;-50
2021/05/21 07:14:18;;;;;;;0.00;0.00;;;16.90;70.60;;;;;;4188079;28;20057;-52
2021/05/21 07:16:40;;;;;;;0.00;0.00;;;16.90;70.70;;;;;;4192935;28;20049;-49
2021/05/21 07:19:02;;;;;;;1.65;1.40;;;16.80;70.60;;;;;;4200348;28;20191;-49
2021/05/21 07:21:26;;;;;;;0.00;0.00;;;16.80;70.70;;;;;;4205694;28;20048;-50
2021/05/21 07:23:50;;;;;;;0.13;0.13;;;16.80;70.80;;;;;;4206175;28;20136;-51
2021/05/21 07:26:13;;;;;;;0.00;0.00;;;16.70;71.00;;;;;;4193327;28;20036;-47
2021/05/21 07:28:34;;;;;;;0.00;0.00;;;16.80;71.10;;;;;;4197761;28;20112;-47
2021/05/21 07:30:55;;;;;;;;;;;16.70;71.00;;;;;;4206435;28;20587;-50
2021/05/21 07:33:17;;;;;;;1.27;1.17;;;16.70;70.90;;;;;;4193158;28;20310;-46
2021/05/21 07:35:39;;;;;;;0.20;0.20;;;16.70;71.10;;;;;;4192817;28;20048;-48
2021/05/21 07:38:00;;;;;;;0.00;0.00;;;16.70;71.00;;;;;;4193748;28;20040;-50
2021/05/21 07:40:23;;;;;;;0.20;0.20;;;16.70;70.90;;;;;;4195102;28;20048;-49
2021/05/21 07:42:46;;;;;;;0.00;0.00;;;16.70;70.70;;;;;;4193141;28;20147;-49
2021/05/21 07:45:11;;;;;;;1.35;1.08;;;16.70;70.60;;;;;;4206788;28;20101;-50
2021/05/21 07:47:33;;;;;;;0.00;0.00;;;16.80;70.50;;;;;;4209642;28;20555;-47
2021/05/21 07:49:55;;;;;;;0.00;0.00;;;16.80;70.30;;;;;;4194389;28;20076;-52
2021/05/21 07:52:16;;;;;;;0.00;0.00;;;16.90;70.10;;;;;;4204257;28;20047;-46
2021/05/21 07:54:37;;;;;;;;;;;16.90;70.10;;;;;;4193011;28;20056;-50
2021/05/21 07:56:59;;;;;;;0.00;0.00;;;17.00;69.80;;;;;;4192729;28;19925;-50
2021/05/21 07:59:21;;;;;;;0.00;0.00;;;17.00;69.70;;;;;;4192596;28;20537;-49
2021/05/21 08:01:45;;;;;;;0.08;0.08;;;17.00;69.40;;;;;;4204174;28;20121;-51
2021/05/21 08:04:07;;;;;;;0.00;0.00;;;17.00;69.20;;;;;;4200386;28;20550;-52
2021/05/21 08:06:28;;;;;;;0.38;0.38;;;17.00;69.10;;;;;;4209303;28;20066;-46
2021/05/21 08:08:50;;;;;;;0.28;0.28;;;17.10;69.80;;;;;;4195846;28;20487;-50
2021/05/21 08:11:12;;;;;;;0.00;0.00;;;17.10;68.70;;;;;;4192480;28;20415;-52
2021/05/21 08:13:33;;;;;;;0.00;0.00;;;17.00;68.30;;;;;;4192512;28;20135;-51
2021/05/21 08:15:56;;;;;;;0.00;0.00;;;17.00;68.20;;;;;;4183922;28;20518;-49
2021/05/21 08:18:18;;;;;;;0.00;0.00;;;17.00;68.20;;;;;;4184755;28;20070;-47
2021/05/21 08:20:40;;;;;;;0.88;0.88;;;17.00;68.20;;;;;;4179417;28;20052;-50
2021/05/21 08:23:01;;;;;;;0.05;0.05;;;17.00;68.10;;;;;;4196699;28;20070;-52
2021/05/21 08:25:23;;;;;;;0.43;0.43;;;16.90;68.00;;;;;;4199856;28;20054;-48
2021/05/21 08:27:45;;;;;;;27.30;2.30;;;16.90;68.10;;;;;;4206320;28;20464;-51
2021/05/21 08:30:07;;;;;;;0.00;0.00;;;16.90;68.30;;;;;;4193420;28;20166;-47
2021/05/21 08:32:30;;;;;;;0.10;0.10;;;16.80;68.40;;;;;;4192388;28;20048;-45
2021/05/21 08:34:51;;;;;;;0.52;0.52;;;16.80;68.50;;;;;;4193219;28;20052;-49
2021/05/21 08:37:14;;;;;;;0.30;0.30;;;16.80;68.60;;;;;;4191888;28;20487;-47
2021/05/21 08:39:38;;;;;;;0.00;0.00;;;16.80;68.70;;;;;;4192082;28;20055;-46
2021/05/21 08:42:00;;;;;;;0.05;0.05;;;16.80;68.80;;;;;;4197558;28;20047;-48
2021/05/21 08:44:22;;;;;;;0.10;0.10;;;16.80;68.80;;;;;;4192010;28;20473;-52
2021/05/21 08:46:43;;;;;;;0.03;0.03;;;16.80;68.80;;;;;;4191977;28;20506;-48
2021/05/21 08:49:05;;;;;;;;;;;16.80;68.90;;;;;;4191234;28;20052;-49
2021/05/21 08:51:29;;;;;;;0.00;0.00;;;16.80;68.90;;;;;;4184050;28;19924;-46
2021/05/21 08:53:50;;;;;;;0.30;0.30;;;16.80;68.80;;;;;;4189010;28;20052;-49
2021/05/21 08:56:12;;;;;;;0.52;0.52;;;16.80;68.80;;;;;;4191652;28;20044;-51
2021/05/21 08:58:35;;;;;;;1.25;1.13;;;16.80;68.40;;;;;;4191600;28;20036;-52
2021/05/21 09:00:57;;;;;;;0.00;0.00;;;16.80;68.30;;;;;;4191720;28;20048;-54
2021/05/21 09:03:23;;;;;;;2.35;0.73;;;16.80;67.90;;;;;;4191711;28;20490;-52
2021/05/21 09:08:32;;;;;;;8.65;2.05;;;16.80;67.70;;;;;;4206066;27;20363;-51
2021/05/21 09:10:54;;;;;;;0.52;0.45;;;16.90;67.40;;;;;;4204233;27;20062;-47
2021/05/21 09:13:23;;;;;;;0.25;0.25;;;16.80;67.10;;;;;;4205704;27;20430;-48
2021/05/21 09:15:44;;;;;;;0.38;0.38;;;16.90;66.90;;;;;;4205786;27;20036;-52
2021/05/21 09:18:08;;;;;;;0.00;0.00;;;16.90;66.60;;;;;;4205379;27;20524;-50
2021/05/21 09:20:31;;;;;;;0.20;0.20;;;16.90;66.50;;;;;;4205563;28;20537;-51
2021/05/21 09:23:12;;;;;;;0.00;0.00;;;16.90;66.30;;;;;;4204344;27;20101;-46
2021/05/21 09:25:44;;;;;;;0.10;0.10;;;16.90;65.90;;;;;;4188166;28;20051;-45
2021/05/21 09:28:06;;;;;;;1.35;1.10;;;16.90;65.70;;;;;;4188348;28;20133;-50
2021/05/21 09:30:28;;;;;;;0.70;0.40;;;16.90;65.30;;;;;;4188892;28;20076;-47
2021/05/21 09:33:02;;;;;;;0.00;0.00;;;16.90;65.30;;;;;;4188779;28;20419;-46
2021/05/21 09:35:24;;;;;;;0.00;0.00;;;16.90;65.50;;;;;;4197193;27;20519;-48
2021/05/21 09:37:47;;;;;;;4.72;0.38;;;16.90;65.60;;;;;;4188671;28;20091;-48
2021/05/21 09:40:13;;;;;;;0.00;0.00;;;16.90;66.00;;;;;;4188679;28;20572;-50
2021/05/21 09:42:56;;;;;;;0.00;0.00;;;17.00;66.40;;;;;;4205268;28;20052;-49
2021/05/21 09:45:22;;;;;;;0.00;0.00;;;16.90;66.90;;;;;;4204967;28;20054;-47
2021/05/21 09:47:55;;;;;;;0.63;0.47;;;16.90;67.10;;;;;;4204951;28;20423;-48
2021/05/21 09:50:17;;;;;;;0.00;0.00;;;16.90;67.30;;;;;;4204768;28;20044;-53
2021/05/21 09:52:44;;;;;;;0.13;0.13;;;16.90;67.40;;;;;;4204568;28;20167;-46
2021/05/21 09:55:06;;;;;;;11.15;2.58;;;16.90;67.90;;;;;;4204717;28;20098;-49
2021/05/21 09:57:32;;;;;;;0.20;0.20;;;16.80;68.30;;;;;;4188145;28;20049;-48
2021/05/21 09:59:56;;;;;;;0.00;0.00;;;16.90;68.30;;;;;;4192526;28;20139;-50
2021/05/21 10:02:19;;;;;;;0.00;0.00;;;16.90;68.30;;;;;;4205153;28;20052;-46
2021/05/21 10:04:41;;;;;;;0.00;0.00;;;16.90;68.40;;;;;;4204964;28;20052;-49
2021/05/21 10:07:02;;;;;;;0.20;0.20;;;16.90;68.30;;;;;;4204033;28;20052;-49
2021/05/21 10:09:23;;;;;;;;;;;16.90;68.30;;;;;;4205131;28;20045;-50
2021/05/21 10:11:46;;;;;;;0.00;0.00;;;16.90;68.30;;;;;;4204843;28;20450;-55
2021/05/21 10:14:08;;;;;;;0.00;0.00;;;17.00;68.50;;;;;;4203752;28;20549;-48
2021/05/21 10:16:32;;;;;;;2.60;1.10;;;16.90;69.60;;;;;;4204230;28;20052;-49
2021/05/21 10:18:54;;;;;;;0.10;0.10;;;17.00;69.00;;;;;;4197368;28;20049;-53
2021/05/21 10:21:17;;;;;;;0.20;0.20;;;17.00;69.00;;;;;;4192290;28;20649;-50
2021/05/21 10:23:42;;;;;;;0.00;0.00;;;17.00;68.50;;;;;;4192936;28;20110;-47
2021/05/21 10:26:12;;;;;;;1.08;1.08;;;17.00;68.80;;;;;;4193303;28;20144;-50
2021/05/21 10:28:34;;;;;;;0.00;0.00;;;17.00;68.90;;;;;;4176462;28;20060;-48
2021/05/21 10:30:59;;;;;;;0.25;0.25;;;17.00;69.10;;;;;;4183555;28;20052;-45
2021/05/21 10:33:26;;;;;;;5.55;0.43;;;17.00;69.50;;;;;;4192843;28;20612;-46
2021/05/21 10:36:27;;;;;;;0.00;0.00;;;17.00;69.70;;;;;;4192868;28;20047;-47
2021/05/21 10:39:09;;;;;;;0.98;0.65;;;17.10;70.00;;;;;;4192848;28;20054;-48
2021/05/21 10:41:51;;;;;;;0.00;0.00;;;17.10;69.90;;;;;;4192691;28;20075;-51
2021/05/21 10:44:21;;;;;;;0.20;0.20;;;17.10;70.00;;;;;;4192517;28;20037;-47
2021/05/21 10:46:43;;;;;;;0.15;0.15;;;17.10;70.40;;;;;;4191714;28;20053;-45
2021/05/21 10:49:05;;;;;;;0.77;0.77;;;17.10;70.50;;;;;;4192692;28;20044;-47
2021/05/21 10:51:28;;;;;;;1.08;1.08;;;17.20;70.70;;;;;;4192843;28;20062;-46
2021/05/21 10:54:24;;;;;;;0.32;0.32;;;17.20;71.10;;;;;;4192738;28;20052;-48
2021/05/21 10:56:46;;;;;;;0.00;0.00;;;17.20;71.10;;;;;;4175976;28;20534;-49
2021/05/21 10:59:07;;;;;;;0.00;0.00;;;17.30;71.30;;;;;;4175424;28;20500;-50
2021/05/21 11:01:43;;;;;;;0.45;0.45;;;17.20;71.20;;;;;;4175775;28;20056;-52
2021/05/21 11:04:31;;;;;;;0.52;0.52;;;17.30;71.20;;;;;;4175562;28;20586;-52
2021/05/21 11:06:54;;;;;;;0.00;0.00;;;17.20;71.20;;;;;;4175483;28;20051;-51
2021/05/21 11:09:18;;;;;;;0.00;0.00;;;17.20;71.10;;;;;;4189421;28;20052;-50
2021/05/21 11:11:48;;;;;;;0.00;0.00;;;17.20;71.20;;;;;;4192516;28;20056;-53
2021/05/21 11:14:27;;;;;;;1.88;0.95;;;17.20;71.40;;;;;;4192004;28;20101;-48
2021/05/21 11:16:53;;;;;;;0.00;0.00;;;17.20;71.30;;;;;;4192082;28;20139;-46
2021/05/21 11:19:20;;;;;;;0.47;0.47;;;17.20;71.30;;;;;;4192563;28;20483;-50
2021/05/21 11:21:43;;;;;;;0.00;0.00;;;17.20;71.30;;;;;;4191357;28;20045;-48
2021/05/21 11:24:07;;;;;;;0.13;0.13;;;17.20;71.20;;;;;;4192004;28;20050;-47
2021/05/21 11:26:29;;;;;;;0.00;0.00;;;17.20;71.30;;;;;;4191863;28;20053;-48
2021/05/21 11:28:55;;;;;;;1.10;0.85;;;17.20;71.10;;;;;;4191630;28;20045;-47
2021/05/21 11:31:18;;;;;;;0.10;0.10;;;17.10;71.30;;;;;;4191241;28;20396;-48
2021/05/21 11:33:40;;;;;;;0.00;0.00;;;17.10;71.80;;;;;;4192354;28;20072;-47
2021/05/21 11:36:05;;;;;;;0.60;0.60;;;17.10;72.00;;;;;;4192717;28;20063;-48
2021/05/21 11:38:28;;;;;;;0.00;0.00;;;17.10;72.30;;;;;;4175557;28;20455;-46
2021/05/21 11:40:49;;;;;;;0.00;0.00;;;17.10;72.80;;;;;;4177242;28;20055;-47
2021/05/21 11:43:11;;;;;;;0.00;0.00;;;17.10;72.60;;;;;;4190658;28;20499;-49
2021/05/21 11:45:32;;;;;;;0.10;0.10;;;17.10;74.40;;;;;;4192167;28;20049;-47
2021/05/21 11:47:55;;;;;;;0.00;0.00;;;17.20;73.80;;;;;;4191728;28;20072;-48
2021/05/21 11:50:30;;;;;;;0.00;0.00;;;17.20;73.40;;;;;;4191756;28;20060;-51
2021/05/21 11:52:51;;;;;;;0.93;0.93;;;17.20;73.20;;;;;;4190020;28;20125;-47
2021/05/21 11:55:14;;;;;;;;;;;17.20;74.90;;;;;;4192342;28;20070;-46
2021/05/21 11:57:35;;;;;;;0.40;0.40;;;17.20;74.00;;;;;;4191958;28;19924;-49
2021/05/21 11:59:57;;;;;;;0.43;0.43;;;17.20;73.60;;;;;;4192149;28;20083;-47
2021/05/21 12:02:20;;;;;;;0.00;0.00;;;17.20;73.30;;;;;;4190712;28;20610;-47
2021/05/21 12:04:43;;;;;;;0.00;0.00;;;17.20;73.30;;;;;;4179644;28;20099;-49
2021/05/21 12:07:05;;;;;;;0.00;0.00;;;17.20;73.70;;;;;;4175086;28;20057;-48
2021/05/21 12:09:27;;;;;;;0.05;0.05;;;17.10;74.20;;;;;;4175242;28;20053;-50
2021/05/21 12:11:51;;;;;;;0.00;0.00;;;17.10;74.50;;;;;;4175161;28;20114;-47
2021/05/21 12:14:13;;;;;;;0.00;0.00;;;17.10;74.60;;;;;;4174653;28;20053;-46
2021/05/21 12:16:36;;;;;;;0.00;0.00;;;17.10;74.40;;;;;;4174968;28;20697;-47
2021/05/21 12:19:01;;;;;;;0.00;0.00;;;17.10;74.30;;;;;;4174823;28;20037;-46
2021/05/21 12:21:24;;;;;;;0.20;0.20;;;17.10;74.10;;;;;;4176753;28;20044;-52
2021/05/21 12:23:50;;;;;;;0.30;0.30;;;17.20;74.00;;;;;;4191490;28;20040;-47
2021/05/21 12:26:13;;;;;;;0.80;0.70;;;17.20;73.70;;;;;;4191419;28;20051;-48
2021/05/21 12:28:35;;;;;;;0.00;0.00;;;17.20;73.60;;;;;;4191449;28;20128;-48
2021/05/21 12:31:02;;;;;;;0.00;0.00;;;17.20;73.50;;;;;;4191327;28;20060;-47
2021/05/21 12:33:24;;;;;;;0.00;0.00;;;17.20;73.40;;;;;;4191391;28;20048;-49